sensor_id;sensor_type;location;lat;lon;timestamp;temperature;humidity
22635;DHT22;11484;50.858;4.384;2023-04-21T00:00:16;9.50;99.90
22635;DHT22;11484;50.858;4.384;2023-04-21T00:02:42;9.40;99.90
22635;DHT22;11484;50.858;4.384;2023-04-21T00:05:09;9.10;99.90
22635;DHT22;11484;50.858;4.384;2023-04-21T00:07:36;9.10;99.90
22635;DHT22;11484;50.858;4.384;2023-04-21T00:10:07;9.00;99.90
22635;DHT22;11484;50.858;4.384;2023-04-21T00:12:33;9.10;99.90
22635;DHT22;11484;50.858;4.384;2023-04-21T00:14:59;9.00;99.90
22635;DHT22;11484;50.858;4.384;2023-04-21T00:17:25;8.90;99.90
22635;DHT22;11484;50.858;4.384;2023-04-21T00:19:50;8.70;99.90
22635;DHT22;11484;50.858;4.384;2023-04-21T00:22:16;8.60;99.90
22635;DHT22;11484;50.858;4.384;2023-04-21T00:24:42;8.60;99.90
22635;DHT22;11484;50.858;4.384;2023-04-21T00:27:08;8.60;99.90
22635;DHT22;11484;50.858;4.384;2023-04-21T00:29:34;8.60;99.90
22635;DHT22;11484;50.858;4.384;2023-04-21T00:31:59;8.70;99.90
22635;DHT22;11484;50.858;4.384;2023-04-21T00:34:26;8.80;99.90
22635;DHT22;11484;50.858;4.384;2023-04-21T00:36:52;8.80;99.90
22635;DHT22;11484;50.858;4.384;2023-04-21T00:39:17;8.80;99.90
22635;DHT22;11484;50.858;4.384;2023-04-21T00:41:43;9.00;99.90
22635;DHT22;11484;50.858;4.384;2023-04-21T00:44:09;9.20;99.90
22635;DHT22;11484;50.858;4.384;2023-04-21T00:46:35;9.30;99.90
22635;DHT22;11484;50.858;4.384;2023-04-21T00:49:05;9.20;99.90
22635;DHT22;11484;50.858;4.384;2023-04-21T00:51:33;9.10;99.90
22635;DHT22;11484;50.858;4.384;2023-04-21T00:54:01;9.00;99.90
22635;DHT22;11484;50.858;4.384;2023-04-21T00:56:29;8.80;99.90
22635;DHT22;11484;50.858;4.384;2023-04-21T00:58:57;8.70;99.90
22635;DHT22;11484;50.858;4.384;2023-04-21T01:01:23;8.60;99.90
22635;DHT22;11484;50.858;4.384;2023-04-21T01:03:50;8.70;99.90
22635;DHT22;11484;50.858;4.384;2023-04-21T01:06:17;8.70;99.90
22635;DHT22;11484;50.858;4.384;2023-04-21T01:08:45;8.70;99.90
22635;DHT22;11484;50.858;4.384;2023-04-21T01:11:11;8.80;99.90
22635;DHT22;11484;50.858;4.384;2023-04-21T01:13:38;8.80;99.90
22635;DHT22;11484;50.858;4.384;2023-04-21T01:16:04;8.80;99.90
22635;DHT22;11484;50.858;4.384;2023-04-21T01:18:30;8.80;99.90
22635;DHT22;11484;50.858;4.384;2023-04-21T01:20:56;8.70;99.90
22635;DHT22;11484;50.858;4.384;2023-04-21T01:23:23;8.60;99.90
22635;DHT22;11484;50.858;4.384;2023-04-21T01:25:49;8.50;99.90
22635;DHT22;11484;50.858;4.384;2023-04-21T01:28:24;8.40;99.90
22635;DHT22;11484;50.858;4.384;2023-04-21T01:30:50;8.40;99.90
22635;DHT22;11484;50.858;4.384;2023-04-21T01:33:16;8.40;99.90
22635;DHT22;11484;50.858;4.384;2023-04-21T01:35:42;8.50;99.90
22635;DHT22;11484;50.858;4.384;2023-04-21T01:38:08;8.60;99.90
22635;DHT22;11484;50.858;4.384;2023-04-21T01:40:34;8.60;99.90
22635;DHT22;11484;50.858;4.384;2023-04-21T01:43:00;8.60;99.90
22635;DHT22;11484;50.858;4.384;2023-04-21T01:45:26;8.60;99.90
22635;DHT22;11484;50.858;4.384;2023-04-21T01:47:51;8.50;99.90
22635;DHT22;11484;50.858;4.384;2023-04-21T01:50:17;8.60;99.90
22635;DHT22;11484;50.858;4.384;2023-04-21T01:52:43;8.50;99.90
22635;DHT22;11484;50.858;4.384;2023-04-21T01:55:08;8.50;99.90
22635;DHT22;11484;50.858;4.384;2023-04-21T01:57:34;8.60;99.90
22635;DHT22;11484;50.858;4.384;2023-04-21T02:00:01;8.50;99.90
22635;DHT22;11484;50.858;4.384;2023-04-21T02:02:27;8.50;99.90
22635;DHT22;11484;50.858;4.384;2023-04-21T02:04:53;8.50;99.90
22635;DHT22;11484;50.858;4.384;2023-04-21T02:07:18;8.40;99.90
22635;DHT22;11484;50.858;4.384;2023-04-21T02:09:44;8.50;99.90
22635;DHT22;11484;50.858;4.384;2023-04-21T02:12:10;8.30;99.90
22635;DHT22;11484;50.858;4.384;2023-04-21T02:14:36;8.30;99.90
22635;DHT22;11484;50.858;4.384;2023-04-21T02:17:03;8.30;99.90
22635;DHT22;11484;50.858;4.384;2023-04-21T02:19:29;8.30;99.90
22635;DHT22;11484;50.858;4.384;2023-04-21T02:21:55;8.30;99.90
22635;DHT22;11484;50.858;4.384;2023-04-21T02:24:21;8.30;99.90
22635;DHT22;11484;50.858;4.384;2023-04-21T02:26:46;8.20;99.90
22635;DHT22;11484;50.858;4.384;2023-04-21T02:29:12;8.20;99.90
22635;DHT22;11484;50.858;4.384;2023-04-21T02:31:38;8.30;99.90
22635;DHT22;11484;50.858;4.384;2023-04-21T02:34:04;8.40;99.90
22635;DHT22;11484;50.858;4.384;2023-04-21T02:36:30;8.30;99.90
22635;DHT22;11484;50.858;4.384;2023-04-21T02:38:56;8.30;99.90
22635;DHT22;11484;50.858;4.384;2023-04-21T02:41:22;8.40;99.90
22635;DHT22;11484;50.858;4.384;2023-04-21T02:43:48;8.30;99.90
22635;DHT22;11484;50.858;4.384;2023-04-21T02:46:14;8.30;99.90
22635;DHT22;11484;50.858;4.384;2023-04-21T02:48:39;8.30;99.90
22635;DHT22;11484;50.858;4.384;2023-04-21T02:51:10;8.30;99.90
22635;DHT22;11484;50.858;4.384;2023-04-21T02:53:36;8.20;99.90
22635;DHT22;11484;50.858;4.384;2023-04-21T02:56:02;8.30;99.90
22635;DHT22;11484;50.858;4.384;2023-04-21T02:58:29;8.40;99.90
22635;DHT22;11484;50.858;4.384;2023-04-21T03:00:55;8.40;99.90
22635;DHT22;11484;50.858;4.384;2023-04-21T03:03:21;8.30;99.90
22635;DHT22;11484;50.858;4.384;2023-04-21T03:05:47;8.30;99.90
22635;DHT22;11484;50.858;4.384;2023-04-21T03:08:12;8.20;99.90
22635;DHT22;11484;50.858;4.384;2023-04-21T03:10:38;8.30;99.90
22635;DHT22;11484;50.858;4.384;2023-04-21T03:13:04;8.20;99.90
22635;DHT22;11484;50.858;4.384;2023-04-21T03:15:30;8.20;99.90
22635;DHT22;11484;50.858;4.384;2023-04-21T03:17:55;8.20;99.90
22635;DHT22;11484;50.858;4.384;2023-04-21T03:20:21;8.20;99.90
22635;DHT22;11484;50.858;4.384;2023-04-21T03:22:47;8.20;99.90
22635;DHT22;11484;50.858;4.384;2023-04-21T03:25:12;8.20;99.90
22635;DHT22;11484;50.858;4.384;2023-04-21T03:27:38;8.20;99.90
22635;DHT22;11484;50.858;4.384;2023-04-21T03:30:05;8.30;99.90
22635;DHT22;11484;50.858;4.384;2023-04-21T03:32:31;8.20;99.90
22635;DHT22;11484;50.858;4.384;2023-04-21T03:34:57;8.30;99.90
22635;DHT22;11484;50.858;4.384;2023-04-21T03:37:22;8.30;99.90
22635;DHT22;11484;50.858;4.384;2023-04-21T03:39:48;8.40;99.90
22635;DHT22;11484;50.858;4.384;2023-04-21T03:42:14;8.40;99.90
22635;DHT22;11484;50.858;4.384;2023-04-21T03:44:40;8.30;99.90
22635;DHT22;11484;50.858;4.384;2023-04-21T03:47:05;8.30;99.90
22635;DHT22;11484;50.858;4.384;2023-04-21T03:49:33;8.40;99.90
22635;DHT22;11484;50.858;4.384;2023-04-21T03:51:59;8.40;99.90
22635;DHT22;11484;50.858;4.384;2023-04-21T03:54:24;8.30;99.90
22635;DHT22;11484;50.858;4.384;2023-04-21T03:56:50;8.40;99.90
22635;DHT22;11484;50.858;4.384;2023-04-21T03:59:16;8.40;99.90
22635;DHT22;11484;50.858;4.384;2023-04-21T04:01:41;8.40;99.90
22635;DHT22;11484;50.858;4.384;2023-04-21T04:04:07;8.60;99.90
22635;DHT22;11484;50.858;4.384;2023-04-21T04:06:33;8.60;99.90
22635;DHT22;11484;50.858;4.384;2023-04-21T04:09:00;8.60;99.90
22635;DHT22;11484;50.858;4.384;2023-04-21T04:11:29;8.70;99.90
22635;DHT22;11484;50.858;4.384;2023-04-21T04:13:55;8.70;99.90
22635;DHT22;11484;50.858;4.384;2023-04-21T04:16:21;8.80;99.90
22635;DHT22;11484;50.858;4.384;2023-04-21T04:18:47;8.80;99.90
22635;DHT22;11484;50.858;4.384;2023-04-21T04:21:13;8.70;99.90
22635;DHT22;11484;50.858;4.384;2023-04-21T04:23:39;8.60;99.90
22635;DHT22;11484;50.858;4.384;2023-04-21T04:26:05;8.50;99.90
22635;DHT22;11484;50.858;4.384;2023-04-21T04:28:31;8.40;99.90
22635;DHT22;11484;50.858;4.384;2023-04-21T04:30:56;8.30;99.90
22635;DHT22;11484;50.858;4.384;2023-04-21T04:33:22;8.20;99.90
22635;DHT22;11484;50.858;4.384;2023-04-21T04:35:48;8.20;99.90
22635;DHT22;11484;50.858;4.384;2023-04-21T04:38:14;8.30;99.90
22635;DHT22;11484;50.858;4.384;2023-04-21T04:40:40;8.40;99.90
22635;DHT22;11484;50.858;4.384;2023-04-21T04:43:06;8.50;99.90
22635;DHT22;11484;50.858;4.384;2023-04-21T04:45:33;8.70;99.90
22635;DHT22;11484;50.858;4.384;2023-04-21T04:47:59;8.70;99.90
22635;DHT22;11484;50.858;4.384;2023-04-21T04:50:24;8.60;99.90
22635;DHT22;11484;50.858;4.384;2023-04-21T04:52:50;8.50;99.90
22635;DHT22;11484;50.858;4.384;2023-04-21T04:55:16;8.50;99.90
22635;DHT22;11484;50.858;4.384;2023-04-21T04:57:41;8.60;99.90
22635;DHT22;11484;50.858;4.384;2023-04-21T05:00:08;8.80;99.90
22635;DHT22;11484;50.858;4.384;2023-04-21T05:02:39;9.00;99.90
22635;DHT22;11484;50.858;4.384;2023-04-21T05:05:05;9.00;99.90
22635;DHT22;11484;50.858;4.384;2023-04-21T05:07:32;9.10;99.90
22635;DHT22;11484;50.858;4.384;2023-04-21T05:09:58;9.20;99.90
22635;DHT22;11484;50.858;4.384;2023-04-21T05:12:23;9.30;99.90
22635;DHT22;11484;50.858;4.384;2023-04-21T05:14:49;9.20;99.90
22635;DHT22;11484;50.858;4.384;2023-04-21T05:17:15;9.20;99.90
22635;DHT22;11484;50.858;4.384;2023-04-21T05:19:40;9.20;99.90
22635;DHT22;11484;50.858;4.384;2023-04-21T05:22:06;9.10;99.90
22635;DHT22;11484;50.858;4.384;2023-04-21T05:24:32;9.20;99.90
22635;DHT22;11484;50.858;4.384;2023-04-21T05:26:59;9.40;99.90
22635;DHT22;11484;50.858;4.384;2023-04-21T05:29:25;9.50;99.90
22635;DHT22;11484;50.858;4.384;2023-04-21T05:31:51;9.50;99.90
22635;DHT22;11484;50.858;4.384;2023-04-21T05:34:17;9.50;99.90
22635;DHT22;11484;50.858;4.384;2023-04-21T05:36:42;9.40;99.90
22635;DHT22;11484;50.858;4.384;2023-04-21T05:39:08;9.30;99.90
22635;DHT22;11484;50.858;4.384;2023-04-21T05:41:34;9.30;99.90
22635;DHT22;11484;50.858;4.384;2023-04-21T05:44:00;9.20;99.90
22635;DHT22;11484;50.858;4.384;2023-04-21T05:46:26;9.10;99.90
22635;DHT22;11484;50.858;4.384;2023-04-21T05:48:51;9.00;99.90
22635;DHT22;11484;50.858;4.384;2023-04-21T05:51:17;9.20;99.90
22635;DHT22;11484;50.858;4.384;2023-04-21T05:53:44;9.30;99.90
22635;DHT22;11484;50.858;4.384;2023-04-21T05:56:12;9.30;99.90
22635;DHT22;11484;50.858;4.384;2023-04-21T05:58:38;9.30;99.90
22635;DHT22;11484;50.858;4.384;2023-04-21T06:01:04;9.10;99.90
22635;DHT22;11484;50.858;4.384;2023-04-21T06:03:31;9.10;99.90
22635;DHT22;11484;50.858;4.384;2023-04-21T06:05:59;9.20;99.90
22635;DHT22;11484;50.858;4.384;2023-04-21T06:08:25;9.10;99.90
22635;DHT22;11484;50.858;4.384;2023-04-21T06:10:51;9.30;99.90
22635;DHT22;11484;50.858;4.384;2023-04-21T06:13:16;9.30;99.90
22635;DHT22;11484;50.858;4.384;2023-04-21T06:15:42;9.30;99.90
22635;DHT22;11484;50.858;4.384;2023-04-21T06:18:08;9.30;99.90
22635;DHT22;11484;50.858;4.384;2023-04-21T06:20:34;9.20;99.90
22635;DHT22;11484;50.858;4.384;2023-04-21T06:22:59;9.30;99.90
22635;DHT22;11484;50.858;4.384;2023-04-21T06:25:25;9.50;99.90
22635;DHT22;11484;50.858;4.384;2023-04-21T06:27:51;9.50;99.90
22635;DHT22;11484;50.858;4.384;2023-04-21T06:30:16;9.60;99.90
22635;DHT22;11484;50.858;4.384;2023-04-21T06:32:42;9.70;99.90
22635;DHT22;11484;50.858;4.384;2023-04-21T06:35:10;10.30;99.90
22635;DHT22;11484;50.858;4.384;2023-04-21T06:37:36;11.30;99.90
22635;DHT22;11484;50.858;4.384;2023-04-21T06:40:02;12.50;99.90
22635;DHT22;11484;50.858;4.384;2023-04-21T06:42:28;13.60;99.90
22635;DHT22;11484;50.858;4.384;2023-04-21T06:44:53;14.80;99.90
22635;DHT22;11484;50.858;4.384;2023-04-21T06:47:20;15.90;99.90
22635;DHT22;11484;50.858;4.384;2023-04-21T06:49:46;16.30;99.90
22635;DHT22;11484;50.858;4.384;2023-04-21T06:52:12;17.10;99.90
22635;DHT22;11484;50.858;4.384;2023-04-21T06:54:38;18.10;99.90
22635;DHT22;11484;50.858;4.384;2023-04-21T06:57:05;18.90;97.50
22635;DHT22;11484;50.858;4.384;2023-04-21T06:59:31;19.10;94.80
22635;DHT22;11484;50.858;4.384;2023-04-21T07:01:57;19.40;93.80
22635;DHT22;11484;50.858;4.384;2023-04-21T07:04:23;19.70;92.10
22635;DHT22;11484;50.858;4.384;2023-04-21T07:06:54;18.80;92.10
22635;DHT22;11484;50.858;4.384;2023-04-21T07:09:20;18.50;93.10
22635;DHT22;11484;50.858;4.384;2023-04-21T07:11:46;18.80;93.60
22635;DHT22;11484;50.858;4.384;2023-04-21T07:14:11;18.80;93.80
22635;DHT22;11484;50.858;4.384;2023-04-21T07:16:37;19.40;91.90
22635;DHT22;11484;50.858;4.384;2023-04-21T07:19:03;19.30;91.00
22635;DHT22;11484;50.858;4.384;2023-04-21T07:21:29;19.10;91.60
22635;DHT22;11484;50.858;4.384;2023-04-21T07:23:56;19.50;90.10
22635;DHT22;11484;50.858;4.384;2023-04-21T07:26:25;19.30;88.90
22635;DHT22;11484;50.858;4.384;2023-04-21T07:28:50;20.10;88.90
22635;DHT22;11484;50.858;4.384;2023-04-21T07:31:17;19.60;87.40
22635;DHT22;11484;50.858;4.384;2023-04-21T07:33:43;19.90;88.10
22635;DHT22;11484;50.858;4.384;2023-04-21T07:36:08;19.80;86.50
22635;DHT22;11484;50.858;4.384;2023-04-21T07:38:34;19.60;87.30
22635;DHT22;11484;50.858;4.384;2023-04-21T07:41:00;20.00;87.50
22635;DHT22;11484;50.858;4.384;2023-04-21T07:43:26;19.70;86.80
22635;DHT22;11484;50.858;4.384;2023-04-21T07:45:52;19.30;87.80
22635;DHT22;11484;50.858;4.384;2023-04-21T07:48:18;18.70;87.20
22635;DHT22;11484;50.858;4.384;2023-04-21T07:50:43;18.20;90.80
22635;DHT22;11484;50.858;4.384;2023-04-21T07:53:09;18.40;90.30
22635;DHT22;11484;50.858;4.384;2023-04-21T07:55:35;18.00;90.60
22635;DHT22;11484;50.858;4.384;2023-04-21T07:58:03;18.30;90.70
22635;DHT22;11484;50.858;4.384;2023-04-21T08:00:28;18.40;89.30
22635;DHT22;11484;50.858;4.384;2023-04-21T08:02:54;18.90;87.40
22635;DHT22;11484;50.858;4.384;2023-04-21T08:05:20;19.30;86.00
22635;DHT22;11484;50.858;4.384;2023-04-21T08:07:46;19.40;83.70
22635;DHT22;11484;50.858;4.384;2023-04-21T08:10:12;19.50;83.10
22635;DHT22;11484;50.858;4.384;2023-04-21T08:12:37;20.00;83.70
22635;DHT22;11484;50.858;4.384;2023-04-21T08:15:04;20.40;82.10
22635;DHT22;11484;50.858;4.384;2023-04-21T08:17:33;20.80;80.00
22635;DHT22;11484;50.858;4.384;2023-04-21T08:19:59;21.50;77.70
22635;DHT22;11484;50.858;4.384;2023-04-21T08:22:25;21.40;74.10
22635;DHT22;11484;50.858;4.384;2023-04-21T08:24:52;21.20;75.00
22635;DHT22;11484;50.858;4.384;2023-04-21T08:27:17;22.10;75.00
22635;DHT22;11484;50.858;4.384;2023-04-21T08:29:43;22.40;71.70
22635;DHT22;11484;50.858;4.384;2023-04-21T08:32:09;22.40;70.60
22635;DHT22;11484;50.858;4.384;2023-04-21T08:34:35;22.70;70.20
22635;DHT22;11484;50.858;4.384;2023-04-21T08:37:00;23.60;69.40
22635;DHT22;11484;50.858;4.384;2023-04-21T08:39:26;23.70;64.20
22635;DHT22;11484;50.858;4.384;2023-04-21T08:41:52;23.50;64.00
22635;DHT22;11484;50.858;4.384;2023-04-21T08:44:19;23.70;63.60
22635;DHT22;11484;50.858;4.384;2023-04-21T08:46:47;24.40;61.70
22635;DHT22;11484;50.858;4.384;2023-04-21T08:49:18;24.40;60.10
22635;DHT22;11484;50.858;4.384;2023-04-21T08:51:44;24.80;62.40
22635;DHT22;11484;50.858;4.384;2023-04-21T08:54:10;25.90;58.90
22635;DHT22;11484;50.858;4.384;2023-04-21T08:56:36;25.10;57.40
22635;DHT22;11484;50.858;4.384;2023-04-21T08:59:02;24.70;58.20
22635;DHT22;11484;50.858;4.384;2023-04-21T09:01:27;24.30;58.80
22635;DHT22;11484;50.858;4.384;2023-04-21T09:04:14;23.50;60.00
22635;DHT22;11484;50.858;4.384;2023-04-21T09:06:41;23.20;61.30
22635;DHT22;11484;50.858;4.384;2023-04-21T09:09:07;23.80;61.20
22635;DHT22;11484;50.858;4.384;2023-04-21T09:11:33;23.70;60.70
22635;DHT22;11484;50.858;4.384;2023-04-21T09:13:59;24.40;60.50
22635;DHT22;11484;50.858;4.384;2023-04-21T09:16:29;23.40;60.80
22635;DHT22;11484;50.858;4.384;2023-04-21T09:18:55;22.80;62.50
22635;DHT22;11484;50.858;4.384;2023-04-21T09:21:27;23.90;61.40
22635;DHT22;11484;50.858;4.384;2023-04-21T09:23:52;23.00;60.70
22635;DHT22;11484;50.858;4.384;2023-04-21T09:26:20;23.00;62.30
22635;DHT22;11484;50.858;4.384;2023-04-21T09:28:50;23.40;62.10
22635;DHT22;11484;50.858;4.384;2023-04-21T09:31:17;23.80;59.30
22635;DHT22;11484;50.858;4.384;2023-04-21T09:33:55;23.20;59.90
22635;DHT22;11484;50.858;4.384;2023-04-21T09:36:23;23.10;61.40
22635;DHT22;11484;50.858;4.384;2023-04-21T09:39:03;23.90;59.30
22635;DHT22;11484;50.858;4.384;2023-04-21T09:41:31;23.70;57.90
22635;DHT22;11484;50.858;4.384;2023-04-21T09:43:57;23.20;58.00
22635;DHT22;11484;50.858;4.384;2023-04-21T09:46:31;22.00;59.50
22635;DHT22;11484;50.858;4.384;2023-04-21T09:48:59;21.90;62.50
22635;DHT22;11484;50.858;4.384;2023-04-21T09:51:29;22.50;60.90
22635;DHT22;11484;50.858;4.384;2023-04-21T09:53:59;22.40;60.80
22635;DHT22;11484;50.858;4.384;2023-04-21T09:56:32;22.30;61.90
22635;DHT22;11484;50.858;4.384;2023-04-21T09:59:06;22.60;59.80
22635;DHT22;11484;50.858;4.384;2023-04-21T10:01:33;21.30;60.00
22635;DHT22;11484;50.858;4.384;2023-04-21T10:04:03;21.00;61.30
22635;DHT22;11484;50.858;4.384;2023-04-21T10:06:29;22.00;61.90
22635;DHT22;11484;50.858;4.384;2023-04-21T10:08:56;22.30;60.40
22635;DHT22;11484;50.858;4.384;2023-04-21T10:11:22;20.80;61.50
22635;DHT22;11484;50.858;4.384;2023-04-21T10:13:49;20.90;64.70
22635;DHT22;11484;50.858;4.384;2023-04-21T10:16:16;21.10;61.40
22635;DHT22;11484;50.858;4.384;2023-04-21T10:18:43;20.90;63.40
22635;DHT22;11484;50.858;4.384;2023-04-21T10:21:11;20.60;64.80
22635;DHT22;11484;50.858;4.384;2023-04-21T10:26:05;19.40;67.90
22635;DHT22;11484;50.858;4.384;2023-04-21T10:29:08;19.10;68.70
22635;DHT22;11484;50.858;4.384;2023-04-21T10:39:38;19.70;64.40
22635;DHT22;11484;50.858;4.384;2023-04-21T10:49:57;18.50;68.80
22635;DHT22;11484;50.858;4.384;2023-04-21T10:52:32;18.40;69.40
22635;DHT22;11484;50.858;4.384;2023-04-21T10:57:24;18.60;70.00
22635;DHT22;11484;50.858;4.384;2023-04-21T10:59:49;18.30;71.00
22635;DHT22;11484;50.858;4.384;2023-04-21T11:02:17;18.30;72.10
22635;DHT22;11484;50.858;4.384;2023-04-21T11:04:43;18.20;70.50
22635;DHT22;11484;50.858;4.384;2023-04-21T11:07:13;17.80;71.70
22635;DHT22;11484;50.858;4.384;2023-04-21T11:09:41;17.70;71.60
22635;DHT22;11484;50.858;4.384;2023-04-21T11:12:14;17.60;72.60
22635;DHT22;11484;50.858;4.384;2023-04-21T11:14:43;17.60;72.60
22635;DHT22;11484;50.858;4.384;2023-04-21T11:17:14;17.60;72.50
22635;DHT22;11484;50.858;4.384;2023-04-21T11:19:40;17.30;67.80
22635;DHT22;11484;50.858;4.384;2023-04-21T11:22:06;17.20;69.70
22635;DHT22;11484;50.858;4.384;2023-04-21T11:24:32;17.30;70.20
22635;DHT22;11484;50.858;4.384;2023-04-21T11:26:58;17.30;68.40
22635;DHT22;11484;50.858;4.384;2023-04-21T11:29:27;17.30;70.00
22635;DHT22;11484;50.858;4.384;2023-04-21T11:31:56;17.20;68.50
22635;DHT22;11484;50.858;4.384;2023-04-21T11:34:25;17.20;69.00
22635;DHT22;11484;50.858;4.384;2023-04-21T11:36:51;17.20;68.20
22635;DHT22;11484;50.858;4.384;2023-04-21T11:39:18;17.30;68.50
22635;DHT22;11484;50.858;4.384;2023-04-21T11:41:49;17.50;69.60
22635;DHT22;11484;50.858;4.384;2023-04-21T11:44:36;17.70;69.90
22635;DHT22;11484;50.858;4.384;2023-04-21T11:47:17;17.80;70.30
22635;DHT22;11484;50.858;4.384;2023-04-21T11:52:18;17.80;66.00
22635;DHT22;11484;50.858;4.384;2023-04-21T11:54:45;17.50;67.50
22635;DHT22;11484;50.858;4.384;2023-04-21T11:57:11;17.50;68.30
22635;DHT22;11484;50.858;4.384;2023-04-21T11:59:36;17.30;67.30
22635;DHT22;11484;50.858;4.384;2023-04-21T12:02:02;17.10;69.10
22635;DHT22;11484;50.858;4.384;2023-04-21T12:04:28;17.20;69.30
22635;DHT22;11484;50.858;4.384;2023-04-21T12:07:01;17.40;66.90
22635;DHT22;11484;50.858;4.384;2023-04-21T12:09:28;17.70;67.20
22635;DHT22;11484;50.858;4.384;2023-04-21T12:11:56;17.70;62.80
22635;DHT22;11484;50.858;4.384;2023-04-21T12:14:24;17.40;63.50
22635;DHT22;11484;50.858;4.384;2023-04-21T12:16:54;17.30;64.20
22635;DHT22;11484;50.858;4.384;2023-04-21T12:22:00;17.20;64.80
22635;DHT22;11484;50.858;4.384;2023-04-21T12:24:26;17.40;64.20
22635;DHT22;11484;50.858;4.384;2023-04-21T12:26:52;17.70;64.20
22635;DHT22;11484;50.858;4.384;2023-04-21T12:29:18;17.80;62.90
22635;DHT22;11484;50.858;4.384;2023-04-21T12:31:44;17.80;62.40
22635;DHT22;11484;50.858;4.384;2023-04-21T12:34:09;17.60;63.70
22635;DHT22;11484;50.858;4.384;2023-04-21T12:36:35;17.30;63.80
22635;DHT22;11484;50.858;4.384;2023-04-21T12:39:01;17.30;64.10
22635;DHT22;11484;50.858;4.384;2023-04-21T12:41:26;17.30;62.00
22635;DHT22;11484;50.858;4.384;2023-04-21T12:43:52;17.10;63.70
22635;DHT22;11484;50.858;4.384;2023-04-21T12:46:18;17.20;64.50
22635;DHT22;11484;50.858;4.384;2023-04-21T12:48:44;17.40;64.40
22635;DHT22;11484;50.858;4.384;2023-04-21T12:51:09;17.40;60.10
22635;DHT22;11484;50.858;4.384;2023-04-21T12:53:35;17.40;60.90
22635;DHT22;11484;50.858;4.384;2023-04-21T12:56:02;17.30;61.80
22635;DHT22;11484;50.858;4.384;2023-04-21T12:58:27;17.30;63.60
22635;DHT22;11484;50.858;4.384;2023-04-21T13:00:53;17.30;64.20
22635;DHT22;11484;50.858;4.384;2023-04-21T13:03:19;17.20;63.40
22635;DHT22;11484;50.858;4.384;2023-04-21T13:05:45;17.20;64.20
22635;DHT22;11484;50.858;4.384;2023-04-21T13:08:11;17.40;63.40
22635;DHT22;11484;50.858;4.384;2023-04-21T13:10:37;17.70;63.10
22635;DHT22;11484;50.858;4.384;2023-04-21T13:13:03;17.90;62.50
22635;DHT22;11484;50.858;4.384;2023-04-21T13:15:29;17.80;61.40
22635;DHT22;11484;50.858;4.384;2023-04-21T13:17:55;18.00;62.10
22635;DHT22;11484;50.858;4.384;2023-04-21T13:20:21;18.00;63.00
22635;DHT22;11484;50.858;4.384;2023-04-21T13:22:47;18.10;63.80
22635;DHT22;11484;50.858;4.384;2023-04-21T13:25:12;18.50;62.50
22635;DHT22;11484;50.858;4.384;2023-04-21T13:27:38;18.40;61.40
22635;DHT22;11484;50.858;4.384;2023-04-21T13:30:11;18.40;61.50
22635;DHT22;11484;50.858;4.384;2023-04-21T13:32:38;18.60;62.30
22635;DHT22;11484;50.858;4.384;2023-04-21T13:35:04;18.60;63.00
22635;DHT22;11484;50.858;4.384;2023-04-21T13:37:34;18.50;62.90
22635;DHT22;11484;50.858;4.384;2023-04-21T13:40:01;18.40;62.60
22635;DHT22;11484;50.858;4.384;2023-04-21T13:42:27;18.50;62.20
22635;DHT22;11484;50.858;4.384;2023-04-21T13:44:53;18.40;63.70
22635;DHT22;11484;50.858;4.384;2023-04-21T13:47:19;18.60;64.60
22635;DHT22;11484;50.858;4.384;2023-04-21T13:49:44;18.70;63.20
22635;DHT22;11484;50.858;4.384;2023-04-21T13:52:10;18.60;63.40
22635;DHT22;11484;50.858;4.384;2023-04-21T13:54:36;18.40;62.70
22635;DHT22;11484;50.858;4.384;2023-04-21T13:57:02;18.20;63.30
22635;DHT22;11484;50.858;4.384;2023-04-21T13:59:28;18.40;63.30
22635;DHT22;11484;50.858;4.384;2023-04-21T14:01:54;18.40;61.60
22635;DHT22;11484;50.858;4.384;2023-04-21T14:04:20;18.30;61.00
22635;DHT22;11484;50.858;4.384;2023-04-21T14:06:47;18.30;60.50
22635;DHT22;11484;50.858;4.384;2023-04-21T14:09:13;18.40;60.90
22635;DHT22;11484;50.858;4.384;2023-04-21T14:11:39;18.60;60.60
22635;DHT22;11484;50.858;4.384;2023-04-21T14:14:06;18.80;59.70
22635;DHT22;11484;50.858;4.384;2023-04-21T14:16:32;18.80;59.00
22635;DHT22;11484;50.858;4.384;2023-04-21T14:18:58;18.70;59.90
22635;DHT22;11484;50.858;4.384;2023-04-21T14:21:24;18.50;60.00
22635;DHT22;11484;50.858;4.384;2023-04-21T14:23:49;18.50;60.30
22635;DHT22;11484;50.858;4.384;2023-04-21T14:26:15;18.30;60.70
22635;DHT22;11484;50.858;4.384;2023-04-21T14:28:41;18.20;61.10
22635;DHT22;11484;50.858;4.384;2023-04-21T14:31:07;18.10;61.70
22635;DHT22;11484;50.858;4.384;2023-04-21T14:33:32;18.00;62.60
22635;DHT22;11484;50.858;4.384;2023-04-21T14:35:59;17.90;63.80
22635;DHT22;11484;50.858;4.384;2023-04-21T14:38:25;18.10;63.70
22635;DHT22;11484;50.858;4.384;2023-04-21T14:40:51;18.10;63.80
22635;DHT22;11484;50.858;4.384;2023-04-21T14:43:22;18.00;63.70
22635;DHT22;11484;50.858;4.384;2023-04-21T14:45:48;18.00;62.80
22635;DHT22;11484;50.858;4.384;2023-04-21T14:48:14;17.90;63.20
22635;DHT22;11484;50.858;4.384;2023-04-21T14:50:40;17.70;62.80
22635;DHT22;11484;50.858;4.384;2023-04-21T14:53:06;17.80;62.70
22635;DHT22;11484;50.858;4.384;2023-04-21T14:55:32;17.90;63.20
22635;DHT22;11484;50.858;4.384;2023-04-21T14:57:59;17.90;63.00
22635;DHT22;11484;50.858;4.384;2023-04-21T15:00:25;18.00;62.90
22635;DHT22;11484;50.858;4.384;2023-04-21T15:02:52;18.20;63.30
22635;DHT22;11484;50.858;4.384;2023-04-21T15:05:18;18.00;62.70
22635;DHT22;11484;50.858;4.384;2023-04-21T15:07:44;17.90;63.70
22635;DHT22;11484;50.858;4.384;2023-04-21T15:10:10;18.00;63.40
22635;DHT22;11484;50.858;4.384;2023-04-21T15:12:36;18.00;63.80
22635;DHT22;11484;50.858;4.384;2023-04-21T15:15:04;18.10;62.90
22635;DHT22;11484;50.858;4.384;2023-04-21T15:17:30;18.00;62.80
22635;DHT22;11484;50.858;4.384;2023-04-21T15:19:56;17.90;63.30
22635;DHT22;11484;50.858;4.384;2023-04-21T15:22:22;17.80;64.30
22635;DHT22;11484;50.858;4.384;2023-04-21T15:24:48;17.80;64.10
22635;DHT22;11484;50.858;4.384;2023-04-21T15:27:14;17.90;64.70
22635;DHT22;11484;50.858;4.384;2023-04-21T15:29:39;17.90;64.70
22635;DHT22;11484;50.858;4.384;2023-04-21T15:32:05;17.80;65.60
22635;DHT22;11484;50.858;4.384;2023-04-21T15:34:31;17.80;66.60
22635;DHT22;11484;50.858;4.384;2023-04-21T15:36:57;17.80;67.30
22635;DHT22;11484;50.858;4.384;2023-04-21T15:39:22;17.60;68.20
22635;DHT22;11484;50.858;4.384;2023-04-21T15:41:48;17.60;68.70
22635;DHT22;11484;50.858;4.384;2023-04-21T15:44:14;17.60;68.70
22635;DHT22;11484;50.858;4.384;2023-04-21T15:46:40;17.70;69.10
22635;DHT22;11484;50.858;4.384;2023-04-21T15:49:12;17.70;68.90
22635;DHT22;11484;50.858;4.384;2023-04-21T15:51:39;17.80;68.40
22635;DHT22;11484;50.858;4.384;2023-04-21T15:54:05;18.10;68.10
22635;DHT22;11484;50.858;4.384;2023-04-21T15:56:31;18.30;67.90
22635;DHT22;11484;50.858;4.384;2023-04-21T15:58:56;18.50;67.40